EKYTEKBI

Guest
Details From EKYT - Aalborg
To EKBI - Billund
Flight Number -
Tags generated
Created
Modified
Stats Distance 85 nm / 157 km
Max Altitude 6,500 ft / 1,981 m
Waypoints 3
Social Downloads 1
Likes 0
Share VATSIM

Download

Looking for another format? Having issues loading an existing format? Contact us
Advertisement - Login to hide

Notes

Basic altitude profile: - Ascent Rate: 1600ft/min - Ascent Speed: 180kts - Cruise Altitude: 18000ft - Cruise Speed: 345kts - Descent Rate: 2500ft/min - Descent Speed: 195kts Options: - Use NATs: yes - Use PACOTS: yes - Use low airways: yes - Use high airways: yes

Route

EKYT INTET EKBI

ID Type Via Altitude Latitude Longitude Leg Dist Tot Dist Heading (true) Name
O EKYT APT - 0 ft / 0 m 57.09419˚ 9.85574˚ - 0 nm - Aalborg
INTET FIX - 6,500 ft / 1,981 m 56.22630˚ 9.41141˚ 54 nm 54 nm 196° / 196° -
O EKBI APT - 0 ft / 0 m 55.73618˚ 9.15206˚ 30 nm 84 nm 197° / 196° Billund

Altitude Profile

Advertisement - Login to hide

EKYT

Details ICAO EKYT (AAL)
Name Aalborg
Region Denmark / Faroe Islands
Timezone Europe/Copenhagen (UTC+2.0)
Stats Elevation 10 ft / 3 m (AMSL)
Location 57.094186° 9.855744°
Runways 2
Magnetic Variation 2.858° E

METAR

EKYT 222020Z AUTO 05003KT 9999NDV NCD 16/09 Q1019

Decode

TAF

TAF EKYT 221721Z 2218/2318 VRB05KT 9999 FEW200

Decode

Departure Runways

ID Width Length Bearing (true) Bearing (mag) Surface Threshold Offset Overrun Length
08L 148 ft / 45 m 8,683 ft / 2,647 m 83.20° 80.34° Asphalt 0 ft / 0 m 896 ft / 273 m
08R 75 ft / 23 m 8,338 ft / 2,542 m 83.23° 80.37° Asphalt 0 ft / 0 m 492 ft / 150 m
26L 75 ft / 23 m 8,338 ft / 2,542 m 263.26° 260.40° Asphalt 0 ft / 0 m 492 ft / 150 m
26R 148 ft / 45 m 8,683 ft / 2,647 m 263.24° 260.38° Asphalt 0 ft / 0 m 728 ft / 222 m

EKBI

Details ICAO EKBI (BLL)
Name Billund
Region Denmark / Faroe Islands
Timezone Europe/Copenhagen (UTC+2.0)
Stats Elevation 247 ft / 75 m (AMSL)
Location 55.736183° 9.152056°
Runways 2
Magnetic Variation 2.587° E

METAR

EKBI 222020Z AUTO 10004KT 9999NDV NCD 12/09 Q1019

Decode

TAF

TAF EKBI 221059Z 2212/2312 09008KT CAVOK= TAF EKAH 221059Z 2212/2312 07008KT CAVOK

Decode

Destination Runways

ID Width Length Bearing (true) Bearing (mag) Surface Threshold Offset Overrun Length
09 148 ft / 45 m 9,165 ft / 2,794 m 86.83° 84.24° Asphalt 351 ft / 107 m 0 ft / 0 m
10 98 ft / 30 m 2,017 ft / 615 m 93.89° 91.30° Grass 0 ft / 0 m 0 ft / 0 m
27 148 ft / 45 m 9,165 ft / 2,794 m 266.87° 264.28° Asphalt 351 ft / 107 m 0 ft / 0 m
28 98 ft / 30 m 2,017 ft / 615 m 273.89° 271.30° Grass 0 ft / 0 m 0 ft / 0 m

Approach Navaids

Runway Type Ident Frequency Range Bearing (true) Bearing (mag) Slope Elevation
09 Localiser BIL 111.70 MHz 18 nm / 33 km 86.87° 84.28° - 247 ft / 75 m (AMSL)
09 Glidescope BIL 111.70 MHz 10 nm / 19 km 86.85° 84.26° 3.00° 247 ft / 75 m (AMSL)
27 Localiser LEL 110.70 MHz 18 nm / 33 km 266.83° 264.24° - 247 ft / 75 m (AMSL)
27 Glidescope LEL 110.70 MHz 10 nm / 19 km 266.85° 264.26° 3.00° 247 ft / 75 m (AMSL)
27 DME LEL 110.70 MHz 18 nm / 33 km - - - 246 ft / 75 m (AMSL)

Popular Alternatives